createdAt,value
2022-09-01T00:00:29.353Z,6.88
2022-09-01T00:05:23.725Z,6.22
2022-09-01T00:10:17.591Z,5.93
2022-09-01T00:15:12.875Z,6.10
2022-09-01T00:20:08.785Z,6.57
2022-09-01T00:25:03.615Z,6.03
2022-09-01T00:29:57.335Z,6.53
2022-09-01T00:34:50.535Z,6.28
2022-09-01T00:39:45.064Z,6.15
2022-09-01T00:44:39.375Z,6.32
2022-09-01T00:49:36.250Z,5.55
2022-09-01T00:54:34.408Z,6.45
2022-09-01T00:59:29.626Z,6.30
2022-09-01T01:04:23.110Z,6.15
2022-09-01T01:09:17.055Z,6.47
2022-09-01T01:14:12.322Z,6.30
2022-09-01T01:19:28.154Z,6.13
2022-09-01T01:24:27.698Z,6.05
2022-09-01T01:29:22.058Z,5.43
2022-09-01T01:34:19.915Z,6.38
2022-09-01T01:39:16.876Z,6.13
2022-09-01T01:44:13.402Z,6.63
2022-09-01T01:49:07.143Z,6.50
2022-09-01T01:54:05.637Z,6.43
2022-09-01T01:58:59.035Z,6.40
2022-09-01T02:03:54.930Z,6.47
2022-09-01T02:08:49.104Z,6.32
2022-09-01T02:13:42.354Z,6.40
2022-09-01T02:18:39.262Z,6.28
2022-09-01T02:23:33.957Z,6.57
2022-09-01T02:28:27.883Z,6.22
2022-09-01T02:33:23.121Z,6.72
2022-09-01T02:38:18.129Z,7.07
2022-09-01T02:43:13.666Z,5.93
2022-09-01T02:48:10.471Z,6.40
2022-09-01T02:53:09.874Z,6.65
2022-09-01T02:58:03.277Z,6.30
2022-09-01T03:03:02.905Z,6.00
2022-09-01T03:07:59.284Z,6.20
2022-09-01T03:12:55.908Z,6.57
2022-09-01T03:17:55.823Z,6.22
2022-09-01T03:22:51.822Z,6.38
2022-09-01T03:27:47.566Z,6.30
2022-09-01T03:32:42.263Z,6.22
2022-09-01T03:37:36.364Z,6.60
2022-09-01T03:42:31.167Z,6.68
2022-09-01T03:47:25.373Z,7.05
2022-09-01T03:52:19.575Z,7.25
2022-09-01T03:57:13.909Z,7.13
2022-09-01T04:02:09.360Z,6.82
2022-09-01T04:07:02.886Z,7.07
2022-09-01T04:12:00.425Z,6.88
2022-09-01T04:17:11.469Z,7.60
2022-09-01T04:22:08.199Z,7.10
2022-09-01T04:27:11.467Z,7.00
2022-09-01T04:32:10.028Z,7.13
2022-09-01T04:37:13.321Z,7.03
2022-09-01T04:42:09.467Z,8.07
2022-09-01T04:47:03.814Z,7.15
2022-09-01T04:51:57.307Z,7.45
2022-09-01T04:56:58.725Z,7.90
2022-09-01T05:01:57.736Z,7.50
2022-09-01T05:07:00.001Z,8.07
2022-09-01T05:12:10.510Z,7.40
2022-09-01T05:17:10.438Z,7.30
2022-09-01T05:22:04.938Z,7.55
2022-09-01T05:27:03.232Z,7.68
2022-09-01T05:32:10.412Z,7.10
2022-09-01T05:37:05.661Z,7.20
2022-09-01T05:42:01.749Z,7.50
2022-09-01T05:46:56.270Z,7.03
2022-09-01T05:51:52.737Z,7.43
2022-09-01T05:56:47.450Z,8.15
2022-09-01T06:02:19.748Z,7.70
2022-09-01T06:07:28.724Z,7.35
2022-09-01T06:12:28.334Z,8.15
2022-09-01T06:17:31.898Z,7.38
2022-09-01T06:22:30.116Z,7.40
2022-09-01T06:27:24.927Z,7.43
2022-09-01T06:32:26.137Z,7.18
2022-09-01T06:37:35.866Z,7.18
2022-09-01T06:42:35.490Z,7.15
2022-09-01T06:47:29.808Z,6.65
2022-09-01T06:52:23.839Z,6.95
2022-09-01T07:02:52.197Z,6.47
2022-09-01T07:08:17.960Z,6.30
2022-09-01T07:19:06.797Z,6.43
2022-09-01T07:29:41.658Z,6.40
2022-09-01T07:34:39.708Z,7.30
2022-09-01T07:39:51.766Z,6.97
2022-09-01T07:45:31.086Z,7.23
2022-09-01T07:51:34.250Z,6.93
2022-09-01T07:55:55.030Z,6.68
2022-09-01T08:00:54.654Z,6.43
2022-09-01T08:06:01.127Z,6.00
2022-09-01T08:11:04.398Z,6.63
2022-09-01T08:16:08.429Z,6.03
2022-09-01T08:21:23.408Z,6.85
2022-09-01T08:26:53.055Z,6.57
2022-09-01T08:31:59.405Z,7.20
2022-09-01T08:37:17.743Z,7.13
2022-09-01T08:42:33.322Z,9.45
2022-09-01T08:47:35.412Z,11.20
2022-09-01T08:52:34.178Z,15.20
2022-09-01T08:57:36.612Z,12.18
2022-09-01T09:03:07.721Z,13.38
2022-09-01T09:08:33.336Z,14.93
2022-09-01T09:13:44.612Z,13.75
2022-09-01T09:19:00.619Z,13.35
2022-09-01T09:24:02.458Z,13.70
2022-09-01T09:28:55.867Z,14.93
2022-09-01T09:33:52.812Z,16.63
2022-09-01T09:38:48.968Z,14.77
2022-09-01T09:43:48.327Z,10.52
2022-09-01T09:48:44.208Z,27.80
2022-09-01T09:53:40.678Z,19.55
2022-09-01T09:58:39.713Z,22.05
2022-09-01T10:03:43.615Z,18.27
2022-09-01T10:08:46.010Z,31.00
2022-09-01T10:13:39.415Z,32.63
2022-09-01T10:18:41.872Z,23.67
2022-09-01T10:23:38.749Z,26.48
2022-09-01T10:28:35.108Z,40.00
2022-09-01T10:33:30.168Z,39.37
2022-09-01T10:38:26.881Z,34.45
2022-09-01T10:43:28.568Z,28.40
2022-09-01T10:48:32.120Z,36.13
2022-09-01T10:53:40.650Z,32.78
2022-09-01T11:04:01.791Z,13.32
2022-09-01T11:09:02.289Z,7.13
2022-09-01T11:13:58.947Z,6.53
2022-09-01T11:18:52.710Z,5.70
2022-09-01T11:23:48.262Z,4.80
2022-09-01T11:28:46.250Z,4.80
2022-09-01T11:33:54.445Z,4.38
2022-09-01T11:38:55.119Z,4.78
2022-09-01T11:43:49.253Z,4.68
2022-09-01T11:48:47.913Z,4.28
2022-09-01T11:53:45.835Z,4.32
2022-09-01T11:58:42.084Z,4.40
2022-09-01T12:03:37.117Z,4.93
2022-09-01T12:08:35.024Z,5.15
2022-09-01T12:13:29.362Z,5.45
2022-09-01T12:18:28.311Z,4.25
2022-09-01T12:23:26.838Z,4.45
2022-09-01T12:28:20.398Z,4.13
2022-09-01T12:33:30.839Z,4.10
2022-09-01T12:38:30.011Z,4.13
2022-09-01T12:43:37.057Z,3.78
2022-09-01T12:48:33.909Z,3.95
2022-09-01T12:53:32.499Z,3.72
2022-09-01T12:58:27.873Z,3.80
2022-09-01T13:03:21.872Z,3.80
2022-09-01T13:08:19.275Z,3.78
2022-09-01T13:18:11.644Z,4.05
2022-09-01T13:23:05.317Z,3.90
2022-09-01T13:28:01.665Z,4.20
2022-09-01T13:38:10.640Z,3.95
2022-09-01T13:43:07.736Z,3.60
2022-09-01T13:48:19.048Z,3.55
2022-09-01T13:53:14.065Z,4.05
2022-09-01T13:58:11.085Z,3.63
2022-09-01T14:03:13.239Z,4.05
2022-09-01T14:08:21.184Z,3.67
2022-09-01T14:13:26.346Z,3.90
2022-09-01T14:18:22.332Z,4.15
2022-09-01T14:23:16.774Z,4.07
2022-09-01T14:28:11.798Z,3.60
2022-09-01T14:33:05.540Z,4.32
2022-09-01T14:38:16.768Z,4.25
2022-09-01T14:43:12.829Z,3.95
2022-09-01T14:48:06.803Z,3.53
2022-09-01T14:53:02.068Z,3.67
2022-09-01T14:57:58.083Z,4.40
2022-09-01T15:02:51.993Z,4.13
2022-09-01T15:07:45.911Z,4.50
2022-09-01T15:12:42.521Z,4.40
2022-09-01T15:17:39.664Z,4.00
2022-09-01T15:22:38.845Z,4.30
2022-09-01T15:27:32.514Z,4.53
2022-09-01T15:32:31.129Z,5.60
2022-09-01T15:37:26.251Z,4.30
2022-09-01T15:42:21.989Z,4.10
2022-09-01T15:47:19.189Z,3.90
2022-09-01T15:52:14.423Z,4.53
2022-09-01T15:57:09.267Z,4.38
2022-09-01T16:02:02.929Z,4.20
2022-09-01T16:06:57.023Z,4.22
2022-09-01T16:11:50.812Z,4.68
2022-09-01T16:16:54.791Z,4.00
2022-09-01T16:21:55.948Z,4.03
2022-09-01T16:26:50.510Z,3.83
2022-09-01T16:31:57.789Z,3.90
2022-09-01T16:37:00.060Z,4.15
2022-09-01T16:42:02.356Z,4.30
2022-09-01T16:47:08.532Z,4.30
2022-09-01T16:52:06.851Z,3.90
2022-09-01T16:57:11.678Z,3.60
2022-09-01T17:02:26.936Z,3.67
2022-09-01T17:07:30.684Z,4.88
2022-09-01T17:12:34.609Z,5.30
2022-09-01T17:17:48.285Z,6.00
2022-09-01T17:22:50.992Z,5.30
2022-09-01T17:27:53.069Z,6.15
2022-09-01T17:33:05.121Z,6.82
2022-09-01T17:38:18.725Z,6.93
2022-09-01T17:43:21.724Z,6.88
2022-09-01T17:48:23.509Z,7.43
2022-09-01T17:53:32.091Z,7.75
2022-09-01T17:58:45.722Z,7.40
2022-09-01T18:04:12.868Z,7.60
2022-09-01T18:09:09.779Z,8.10
2022-09-01T18:14:08.751Z,7.68
2022-09-01T18:19:06.335Z,7.55
2022-09-01T18:24:07.501Z,8.52
2022-09-01T18:29:02.114Z,7.10
2022-09-01T18:34:08.676Z,7.45
2022-09-01T18:39:15.507Z,7.07
2022-09-01T18:44:41.267Z,6.25
2022-09-01T18:49:53.592Z,7.40
2022-09-01T18:55:12.857Z,7.22
2022-09-01T19:00:18.815Z,7.10
2022-09-01T19:05:22.776Z,6.63
2022-09-01T19:10:22.960Z,6.93
2022-09-01T19:15:29.376Z,6.18
2022-09-01T19:20:32.086Z,7.00
2022-09-01T19:25:36.965Z,6.80
2022-09-01T19:30:35.362Z,6.97
2022-09-01T19:35:34.459Z,7.05
2022-09-01T19:40:39.941Z,6.97
2022-09-01T19:45:44.505Z,6.90
2022-09-01T19:50:45.900Z,6.65
2022-09-01T19:55:46.254Z,6.00
2022-09-01T20:00:51.206Z,5.72
2022-09-01T20:05:51.374Z,7.63
2022-09-01T20:10:57.733Z,5.38
2022-09-01T20:15:57.587Z,5.72
2022-09-01T20:20:52.515Z,5.65
2022-09-01T20:25:49.991Z,6.25
2022-09-01T20:30:59.725Z,5.50
2022-09-01T20:35:59.759Z,5.22
2022-09-01T20:40:55.822Z,4.95
2022-09-01T20:45:52.126Z,4.57
2022-09-01T20:51:11.565Z,5.20
2022-09-01T20:56:16.334Z,5.57
2022-09-01T21:01:30.134Z,5.00
2022-09-01T21:06:37.796Z,5.28
2022-09-01T21:11:44.374Z,5.10
2022-09-01T21:16:59.599Z,4.68
2022-09-01T21:22:04.370Z,4.30
2022-09-01T21:27:01.464Z,4.85
2022-09-01T21:31:59.933Z,4.60
2022-09-01T21:37:04.708Z,4.75
2022-09-01T21:42:24.556Z,4.72
2022-09-01T21:47:34.296Z,4.90
2022-09-01T21:52:29.568Z,4.72
2022-09-01T21:57:23.691Z,5.20
2022-09-01T22:02:17.287Z,5.43
2022-09-01T22:07:15.434Z,5.85
2022-09-01T22:12:14.036Z,5.10
2022-09-01T22:17:12.890Z,5.50
2022-09-01T22:22:06.737Z,6.15
2022-09-01T22:27:02.463Z,6.22
2022-09-01T22:31:57.423Z,6.57
2022-09-01T22:36:50.997Z,6.68
2022-09-01T22:41:46.232Z,5.82
2022-09-01T22:46:44.384Z,6.60
2022-09-01T22:51:50.790Z,6.20
2022-09-01T22:56:45.343Z,6.82
2022-09-01T23:01:42.855Z,7.00
2022-09-01T23:06:44.954Z,6.32
2022-09-01T23:11:42.224Z,6.25
2022-09-01T23:16:36.075Z,6.40
2022-09-01T23:21:33.701Z,6.20
2022-09-01T23:26:29.286Z,5.93
2022-09-01T23:31:25.908Z,6.75
2022-09-01T23:36:23.632Z,5.90
2022-09-01T23:41:23.258Z,6.88
2022-09-01T23:51:15.335Z,7.00
2022-09-01T23:56:17.069Z,6.90
